sensor_id;sensor_type;location;lat;lon;timestamp;P1;durP1;ratioP1;P2;durP2;ratioP2
65799;SDS011;52544;48.116;11.660;2024-03-08T00:01:39;23.33;;;9.15;;
65799;SDS011;52544;48.116;11.660;2024-03-08T00:04:05;21.27;;;9.02;;
65799;SDS011;52544;48.116;11.660;2024-03-08T00:06:31;20.88;;;8.93;;
65799;SDS011;52544;48.116;11.660;2024-03-08T00:08:57;20.48;;;9.45;;
65799;SDS011;52544;48.116;11.660;2024-03-08T00:11:23;21.63;;;8.73;;
65799;SDS011;52544;48.116;11.660;2024-03-08T00:13:51;20.40;;;9.27;;
65799;SDS011;52544;48.116;11.660;2024-03-08T00:16:17;20.70;;;8.75;;
65799;SDS011;52544;48.116;11.660;2024-03-08T00:18:44;23.33;;;9.30;;
65799;SDS011;52544;48.116;11.660;2024-03-08T00:21:10;21.13;;;9.68;;
65799;SDS011;52544;48.116;11.660;2024-03-08T00:23:37;21.25;;;9.52;;
65799;SDS011;52544;48.116;11.660;2024-03-08T00:26:02;20.70;;;8.88;;
65799;SDS011;52544;48.116;11.660;2024-03-08T00:28:29;21.75;;;9.32;;
65799;SDS011;52544;48.116;11.660;2024-03-08T00:30:56;21.58;;;9.50;;
65799;SDS011;52544;48.116;11.660;2024-03-08T00:33:21;20.77;;;8.77;;
65799;SDS011;52544;48.116;11.660;2024-03-08T00:35:47;22.80;;;10.43;;
65799;SDS011;52544;48.116;11.660;2024-03-08T00:38:12;20.15;;;9.93;;
65799;SDS011;52544;48.116;11.660;2024-03-08T00:40:38;20.88;;;9.65;;
65799;SDS011;52544;48.116;11.660;2024-03-08T00:43:05;20.48;;;9.00;;
65799;SDS011;52544;48.116;11.660;2024-03-08T00:45:31;24.98;;;9.77;;
65799;SDS011;52544;48.116;11.660;2024-03-08T00:47:56;23.33;;;10.25;;
65799;SDS011;52544;48.116;11.660;2024-03-08T00:50:22;17.85;;;9.55;;
65799;SDS011;52544;48.116;11.660;2024-03-08T00:52:47;24.52;;;10.52;;
65799;SDS011;52544;48.116;11.660;2024-03-08T00:55:13;24.20;;;10.23;;
65799;SDS011;52544;48.116;11.660;2024-03-08T00:57:38;20.15;;;10.07;;
65799;SDS011;52544;48.116;11.660;2024-03-08T01:00:04;20.58;;;9.35;;
65799;SDS011;52544;48.116;11.660;2024-03-08T01:02:35;21.60;;;9.82;;
65799;SDS011;52544;48.116;11.660;2024-03-08T01:05:01;24.13;;;11.27;;
65799;SDS011;52544;48.116;11.660;2024-03-08T01:07:26;22.88;;;10.05;;
65799;SDS011;52544;48.116;11.660;2024-03-08T01:09:52;24.08;;;10.77;;
65799;SDS011;52544;48.116;11.660;2024-03-08T01:12:17;22.25;;;9.52;;
65799;SDS011;52544;48.116;11.660;2024-03-08T01:14:43;21.80;;;9.82;;
65799;SDS011;52544;48.116;11.660;2024-03-08T01:17:08;23.48;;;10.32;;
65799;SDS011;52544;48.116;11.660;2024-03-08T01:19:34;23.55;;;9.98;;
65799;SDS011;52544;48.116;11.660;2024-03-08T01:22:00;20.27;;;9.73;;
65799;SDS011;52544;48.116;11.660;2024-03-08T01:24:25;25.98;;;10.95;;
65799;SDS011;52544;48.116;11.660;2024-03-08T01:26:51;25.92;;;10.82;;
65799;SDS011;52544;48.116;11.660;2024-03-08T01:29:16;21.27;;;10.15;;
65799;SDS011;52544;48.116;11.660;2024-03-08T01:31:42;20.08;;;10.35;;
65799;SDS011;52544;48.116;11.660;2024-03-08T01:34:07;22.63;;;10.23;;
65799;SDS011;52544;48.116;11.660;2024-03-08T01:36:33;27.20;;;10.27;;
65799;SDS011;52544;48.116;11.660;2024-03-08T01:38:58;24.90;;;9.85;;
65799;SDS011;52544;48.116;11.660;2024-03-08T01:41:24;24.23;;;10.60;;
65799;SDS011;52544;48.116;11.660;2024-03-08T01:43:49;23.88;;;10.38;;
65799;SDS011;52544;48.116;11.660;2024-03-08T01:46:17;22.10;;;9.82;;
65799;SDS011;52544;48.116;11.660;2024-03-08T01:48:47;22.35;;;10.07;;
65799;SDS011;52544;48.116;11.660;2024-03-08T01:51:12;30.17;;;11.30;;
65799;SDS011;52544;48.116;11.660;2024-03-08T01:53:40;22.80;;;10.85;;
65799;SDS011;52544;48.116;11.660;2024-03-08T01:56:07;22.13;;;10.13;;
65799;SDS011;52544;48.116;11.660;2024-03-08T01:58:33;22.75;;;10.32;;
65799;SDS011;52544;48.116;11.660;2024-03-08T02:01:00;29.08;;;11.05;;
65799;SDS011;52544;48.116;11.660;2024-03-08T02:03:29;24.60;;;9.90;;
65799;SDS011;52544;48.116;11.660;2024-03-08T02:05:56;23.80;;;10.20;;
65799;SDS011;52544;48.116;11.660;2024-03-08T02:08:24;28.00;;;10.57;;
65799;SDS011;52544;48.116;11.660;2024-03-08T02:10:49;27.73;;;10.63;;
65799;SDS011;52544;48.116;11.660;2024-03-08T02:13:16;24.00;;;10.55;;
65799;SDS011;52544;48.116;11.660;2024-03-08T02:15:57;30.33;;;11.43;;
65799;SDS011;52544;48.116;11.660;2024-03-08T02:18:28;28.75;;;11.30;;
65799;SDS011;52544;48.116;11.660;2024-03-08T02:20:58;26.65;;;10.82;;
65799;SDS011;52544;48.116;11.660;2024-03-08T02:23:24;22.83;;;10.93;;
65799;SDS011;52544;48.116;11.660;2024-03-08T02:25:51;26.13;;;11.18;;
65799;SDS011;52544;48.116;11.660;2024-03-08T02:28:18;25.55;;;10.38;;
65799;SDS011;52544;48.116;11.660;2024-03-08T02:30:44;26.70;;;10.35;;
65799;SDS011;52544;48.116;11.660;2024-03-08T02:33:13;24.55;;;10.90;;
65799;SDS011;52544;48.116;11.660;2024-03-08T02:35:41;26.02;;;10.65;;
65799;SDS011;52544;48.116;11.660;2024-03-08T02:38:11;27.42;;;11.32;;
65799;SDS011;52544;48.116;11.660;2024-03-08T02:40:47;29.17;;;10.90;;
65799;SDS011;52544;48.116;11.660;2024-03-08T02:43:14;38.10;;;11.13;;
65799;SDS011;52544;48.116;11.660;2024-03-08T02:45:40;27.88;;;11.00;;
65799;SDS011;52544;48.116;11.660;2024-03-08T02:48:07;23.05;;;10.32;;
65799;SDS011;52544;48.116;11.660;2024-03-08T02:50:33;28.05;;;11.05;;
65799;SDS011;52544;48.116;11.660;2024-03-08T02:53:00;24.00;;;11.10;;
65799;SDS011;52544;48.116;11.660;2024-03-08T02:55:26;25.20;;;10.18;;
65799;SDS011;52544;48.116;11.660;2024-03-08T02:57:52;28.13;;;11.52;;
65799;SDS011;52544;48.116;11.660;2024-03-08T03:00:19;27.70;;;11.05;;
65799;SDS011;52544;48.116;11.660;2024-03-08T03:02:46;23.83;;;10.82;;
65799;SDS011;52544;48.116;11.660;2024-03-08T03:05:12;31.30;;;11.32;;
65799;SDS011;52544;48.116;11.660;2024-03-08T03:07:37;20.80;;;9.77;;
65799;SDS011;52544;48.116;11.660;2024-03-08T03:10:03;26.73;;;11.00;;
65799;SDS011;52544;48.116;11.660;2024-03-08T03:12:29;24.20;;;10.50;;
65799;SDS011;52544;48.116;11.660;2024-03-08T03:14:56;29.65;;;11.52;;
65799;SDS011;52544;48.116;11.660;2024-03-08T03:17:24;27.17;;;11.07;;
65799;SDS011;52544;48.116;11.660;2024-03-08T03:19:50;27.35;;;10.70;;
65799;SDS011;52544;48.116;11.660;2024-03-08T03:22:19;26.05;;;10.82;;
65799;SDS011;52544;48.116;11.660;2024-03-08T03:24:45;27.02;;;10.88;;
65799;SDS011;52544;48.116;11.660;2024-03-08T03:27:16;26.15;;;10.30;;
65799;SDS011;52544;48.116;11.660;2024-03-08T03:29:42;29.30;;;11.65;;
65799;SDS011;52544;48.116;11.660;2024-03-08T03:32:11;23.10;;;10.65;;
65799;SDS011;52544;48.116;11.660;2024-03-08T03:34:37;21.45;;;10.18;;
65799;SDS011;52544;48.116;11.660;2024-03-08T03:37:03;30.38;;;11.02;;
65799;SDS011;52544;48.116;11.660;2024-03-08T03:39:29;23.85;;;10.68;;
65799;SDS011;52544;48.116;11.660;2024-03-08T03:41:59;23.95;;;10.95;;
65799;SDS011;52544;48.116;11.660;2024-03-08T03:44:28;25.70;;;10.93;;
65799;SDS011;52544;48.116;11.660;2024-03-08T03:46:54;31.08;;;11.70;;
65799;SDS011;52544;48.116;11.660;2024-03-08T03:49:19;27.45;;;11.10;;
65799;SDS011;52544;48.116;11.660;2024-03-08T03:51:45;30.45;;;11.20;;
65799;SDS011;52544;48.116;11.660;2024-03-08T03:54:11;26.05;;;11.40;;
65799;SDS011;52544;48.116;11.660;2024-03-08T03:56:37;27.67;;;12.13;;
65799;SDS011;52544;48.116;11.660;2024-03-08T03:59:03;25.38;;;11.32;;
65799;SDS011;52544;48.116;11.660;2024-03-08T04:01:28;27.88;;;11.88;;
65799;SDS011;52544;48.116;11.660;2024-03-08T04:03:54;35.03;;;12.95;;
65799;SDS011;52544;48.116;11.660;2024-03-08T04:06:20;29.15;;;12.40;;
65799;SDS011;52544;48.116;11.660;2024-03-08T04:08:45;31.33;;;11.68;;
65799;SDS011;52544;48.116;11.660;2024-03-08T04:11:11;29.00;;;11.57;;
65799;SDS011;52544;48.116;11.660;2024-03-08T04:13:36;30.67;;;12.63;;
65799;SDS011;52544;48.116;11.660;2024-03-08T04:16:02;27.83;;;12.07;;
65799;SDS011;52544;48.116;11.660;2024-03-08T04:18:27;30.02;;;11.95;;
65799;SDS011;52544;48.116;11.660;2024-03-08T04:20:53;25.67;;;11.65;;
65799;SDS011;52544;48.116;11.660;2024-03-08T04:23:19;25.02;;;11.43;;
65799;SDS011;52544;48.116;11.660;2024-03-08T04:25:44;25.40;;;11.98;;
65799;SDS011;52544;48.116;11.660;2024-03-08T04:28:10;29.77;;;12.38;;
65799;SDS011;52544;48.116;11.660;2024-03-08T04:30:38;25.83;;;11.55;;
65799;SDS011;52544;48.116;11.660;2024-03-08T04:33:05;33.55;;;13.82;;
65799;SDS011;52544;48.116;11.660;2024-03-08T04:35:32;31.17;;;12.85;;
65799;SDS011;52544;48.116;11.660;2024-03-08T04:37:57;30.90;;;12.90;;
65799;SDS011;52544;48.116;11.660;2024-03-08T04:40:23;31.42;;;13.48;;
65799;SDS011;52544;48.116;11.660;2024-03-08T04:42:49;28.73;;;11.70;;
65799;SDS011;52544;48.116;11.660;2024-03-08T04:45:16;36.78;;;14.20;;
65799;SDS011;52544;48.116;11.660;2024-03-08T04:47:42;28.92;;;12.02;;
65799;SDS011;52544;48.116;11.660;2024-03-08T04:50:07;31.00;;;13.90;;
65799;SDS011;52544;48.116;11.660;2024-03-08T04:52:34;33.00;;;13.80;;
65799;SDS011;52544;48.116;11.660;2024-03-08T04:55:00;35.33;;;14.10;;
65799;SDS011;52544;48.116;11.660;2024-03-08T04:57:29;30.83;;;13.60;;
65799;SDS011;52544;48.116;11.660;2024-03-08T04:59:54;32.35;;;14.40;;
65799;SDS011;52544;48.116;11.660;2024-03-08T05:02:20;32.15;;;13.90;;
65799;SDS011;52544;48.116;11.660;2024-03-08T05:04:47;36.17;;;15.65;;
65799;SDS011;52544;48.116;11.660;2024-03-08T05:07:13;33.25;;;13.77;;
65799;SDS011;52544;48.116;11.660;2024-03-08T05:09:38;37.45;;;14.20;;
65799;SDS011;52544;48.116;11.660;2024-03-08T05:12:06;34.55;;;13.68;;
65799;SDS011;52544;48.116;11.660;2024-03-08T05:14:31;31.63;;;14.32;;
65799;SDS011;52544;48.116;11.660;2024-03-08T05:16:57;36.80;;;15.05;;
65799;SDS011;52544;48.116;11.660;2024-03-08T05:19:22;36.78;;;14.40;;
65799;SDS011;52544;48.116;11.660;2024-03-08T05:21:51;33.17;;;14.52;;
65799;SDS011;52544;48.116;11.660;2024-03-08T05:24:17;31.80;;;13.63;;
65799;SDS011;52544;48.116;11.660;2024-03-08T05:26:43;40.00;;;15.10;;
65799;SDS011;52544;48.116;11.660;2024-03-08T05:29:09;36.47;;;15.18;;
65799;SDS011;52544;48.116;11.660;2024-03-08T05:31:53;29.48;;;13.35;;
65799;SDS011;52544;48.116;11.660;2024-03-08T05:34:19;32.75;;;13.20;;
65799;SDS011;52544;48.116;11.660;2024-03-08T05:36:46;35.90;;;14.18;;
65799;SDS011;52544;48.116;11.660;2024-03-08T05:39:12;36.13;;;15.05;;
65799;SDS011;52544;48.116;11.660;2024-03-08T05:41:38;38.95;;;16.05;;
65799;SDS011;52544;48.116;11.660;2024-03-08T05:44:04;40.35;;;14.77;;
65799;SDS011;52544;48.116;11.660;2024-03-08T05:46:30;36.88;;;15.07;;
65799;SDS011;52544;48.116;11.660;2024-03-08T05:48:55;32.95;;;14.38;;
65799;SDS011;52544;48.116;11.660;2024-03-08T05:51:23;42.95;;;14.27;;
65799;SDS011;52544;48.116;11.660;2024-03-08T05:53:49;37.83;;;14.95;;
65799;SDS011;52544;48.116;11.660;2024-03-08T05:56:14;32.65;;;13.95;;
65799;SDS011;52544;48.116;11.660;2024-03-08T05:58:40;36.72;;;14.48;;
65799;SDS011;52544;48.116;11.660;2024-03-08T06:01:05;30.27;;;13.55;;
65799;SDS011;52544;48.116;11.660;2024-03-08T06:03:33;32.08;;;14.27;;
65799;SDS011;52544;48.116;11.660;2024-03-08T06:05:59;35.85;;;15.18;;
65799;SDS011;52544;48.116;11.660;2024-03-08T06:08:24;38.53;;;14.60;;
65799;SDS011;52544;48.116;11.660;2024-03-08T06:10:55;34.70;;;14.30;;
65799;SDS011;52544;48.116;11.660;2024-03-08T06:13:21;33.63;;;13.95;;
65799;SDS011;52544;48.116;11.660;2024-03-08T06:15:46;35.38;;;14.27;;
65799;SDS011;52544;48.116;11.660;2024-03-08T06:18:12;34.28;;;13.98;;
65799;SDS011;52544;48.116;11.660;2024-03-08T06:20:37;39.40;;;13.88;;
65799;SDS011;52544;48.116;11.660;2024-03-08T06:23:03;32.90;;;14.45;;
65799;SDS011;52544;48.116;11.660;2024-03-08T06:25:28;38.80;;;15.23;;
65799;SDS011;52544;48.116;11.660;2024-03-08T06:27:54;32.50;;;13.23;;
65799;SDS011;52544;48.116;11.660;2024-03-08T06:30:20;34.33;;;13.82;;
65799;SDS011;52544;48.116;11.660;2024-03-08T06:32:46;34.45;;;13.55;;
65799;SDS011;52544;48.116;11.660;2024-03-08T06:35:12;33.47;;;14.10;;
65799;SDS011;52544;48.116;11.660;2024-03-08T06:37:37;39.92;;;13.77;;
65799;SDS011;52544;48.116;11.660;2024-03-08T06:40:03;31.55;;;12.98;;
65799;SDS011;52544;48.116;11.660;2024-03-08T06:42:29;36.75;;;13.88;;
65799;SDS011;52544;48.116;11.660;2024-03-08T06:44:58;35.50;;;13.50;;
65799;SDS011;52544;48.116;11.660;2024-03-08T06:47:29;33.60;;;13.77;;
65799;SDS011;52544;48.116;11.660;2024-03-08T06:49:55;35.85;;;12.88;;
65799;SDS011;52544;48.116;11.660;2024-03-08T06:52:20;38.00;;;13.38;;
65799;SDS011;52544;48.116;11.660;2024-03-08T06:54:47;33.03;;;13.45;;
65799;SDS011;52544;48.116;11.660;2024-03-08T06:57:13;33.70;;;13.05;;
65799;SDS011;52544;48.116;11.660;2024-03-08T06:59:39;39.35;;;14.57;;
65799;SDS011;52544;48.116;11.660;2024-03-08T07:02:05;29.88;;;12.73;;
65799;SDS011;52544;48.116;11.660;2024-03-08T07:04:34;33.40;;;13.13;;
65799;SDS011;52544;48.116;11.660;2024-03-08T07:07:06;32.63;;;13.93;;
65799;SDS011;52544;48.116;11.660;2024-03-08T07:09:37;35.55;;;14.85;;
65799;SDS011;52544;48.116;11.660;2024-03-08T07:12:03;33.95;;;12.95;;
65799;SDS011;52544;48.116;11.660;2024-03-08T07:14:29;32.53;;;13.10;;
65799;SDS011;52544;48.116;11.660;2024-03-08T07:16:55;33.78;;;13.25;;
65799;SDS011;52544;48.116;11.660;2024-03-08T07:19:21;31.38;;;12.43;;
65799;SDS011;52544;48.116;11.660;2024-03-08T07:21:47;33.28;;;13.68;;
65799;SDS011;52544;48.116;11.660;2024-03-08T07:24:13;33.63;;;14.00;;
65799;SDS011;52544;48.116;11.660;2024-03-08T07:26:53;36.15;;;14.07;;
65799;SDS011;52544;48.116;11.660;2024-03-08T07:29:20;35.40;;;13.35;;
65799;SDS011;52544;48.116;11.660;2024-03-08T07:31:46;33.28;;;13.48;;
65799;SDS011;52544;48.116;11.660;2024-03-08T07:34:36;34.03;;;12.75;;
65799;SDS011;52544;48.116;11.660;2024-03-08T07:37:02;36.55;;;13.00;;
65799;SDS011;52544;48.116;11.660;2024-03-08T07:39:29;29.15;;;13.00;;
65799;SDS011;52544;48.116;11.660;2024-03-08T07:41:54;34.03;;;13.00;;
65799;SDS011;52544;48.116;11.660;2024-03-08T07:44:20;29.13;;;12.50;;
65799;SDS011;52544;48.116;11.660;2024-03-08T07:46:45;29.30;;;12.63;;
65799;SDS011;52544;48.116;11.660;2024-03-08T07:49:11;35.90;;;14.25;;
65799;SDS011;52544;48.116;11.660;2024-03-08T07:51:37;29.98;;;13.65;;
65799;SDS011;52544;48.116;11.660;2024-03-08T07:54:03;28.67;;;12.65;;
65799;SDS011;52544;48.116;11.660;2024-03-08T07:56:29;34.78;;;13.32;;
65799;SDS011;52544;48.116;11.660;2024-03-08T07:58:55;35.00;;;12.73;;
65799;SDS011;52544;48.116;11.660;2024-03-08T08:01:21;28.35;;;11.77;;
65799;SDS011;52544;48.116;11.660;2024-03-08T08:03:47;31.90;;;13.77;;
65799;SDS011;52544;48.116;11.660;2024-03-08T08:06:14;29.15;;;13.25;;
65799;SDS011;52544;48.116;11.660;2024-03-08T08:08:41;27.33;;;11.70;;
65799;SDS011;52544;48.116;11.660;2024-03-08T08:11:07;29.15;;;12.38;;
65799;SDS011;52544;48.116;11.660;2024-03-08T08:13:34;30.38;;;12.52;;
65799;SDS011;52544;48.116;11.660;2024-03-08T08:16:01;32.05;;;13.43;;
65799;SDS011;52544;48.116;11.660;2024-03-08T08:18:27;31.80;;;12.25;;
65799;SDS011;52544;48.116;11.660;2024-03-08T08:20:54;28.17;;;12.23;;
65799;SDS011;52544;48.116;11.660;2024-03-08T08:23:20;30.77;;;12.20;;
65799;SDS011;52544;48.116;11.660;2024-03-08T08:25:46;28.52;;;12.02;;
65799;SDS011;52544;48.116;11.660;2024-03-08T08:28:15;26.48;;;12.25;;
65799;SDS011;52544;48.116;11.660;2024-03-08T08:30:43;26.77;;;11.50;;
65799;SDS011;52544;48.116;11.660;2024-03-08T08:33:09;27.38;;;12.38;;
65799;SDS011;52544;48.116;11.660;2024-03-08T08:35:36;30.42;;;12.77;;
65799;SDS011;52544;48.116;11.660;2024-03-08T08:38:03;29.55;;;11.90;;
65799;SDS011;52544;48.116;11.660;2024-03-08T08:40:29;30.13;;;12.27;;
65799;SDS011;52544;48.116;11.660;2024-03-08T08:42:57;27.85;;;11.85;;
65799;SDS011;52544;48.116;11.660;2024-03-08T08:45:23;29.27;;;12.52;;
65799;SDS011;52544;48.116;11.660;2024-03-08T08:47:48;24.67;;;11.52;;
65799;SDS011;52544;48.116;11.660;2024-03-08T08:50:20;24.80;;;11.20;;
65799;SDS011;52544;48.116;11.660;2024-03-08T08:52:49;28.13;;;11.82;;
65799;SDS011;52544;48.116;11.660;2024-03-08T08:55:15;24.88;;;11.02;;
65799;SDS011;52544;48.116;11.660;2024-03-08T08:57:48;23.75;;;10.60;;
65799;SDS011;52544;48.116;11.660;2024-03-08T09:00:15;25.58;;;11.77;;
65799;SDS011;52544;48.116;11.660;2024-03-08T09:02:41;24.15;;;10.85;;
65799;SDS011;52544;48.116;11.660;2024-03-08T09:05:07;26.55;;;11.75;;
65799;SDS011;52544;48.116;11.660;2024-03-08T09:07:33;26.23;;;11.70;;
65799;SDS011;52544;48.116;11.660;2024-03-08T09:09:59;23.67;;;11.18;;
65799;SDS011;52544;48.116;11.660;2024-03-08T09:12:25;27.73;;;12.05;;
65799;SDS011;52544;48.116;11.660;2024-03-08T09:14:51;23.27;;;11.13;;
65799;SDS011;52544;48.116;11.660;2024-03-08T09:17:16;22.88;;;10.70;;
65799;SDS011;52544;48.116;11.660;2024-03-08T09:19:46;26.92;;;11.63;;
65799;SDS011;52544;48.116;11.660;2024-03-08T09:22:12;27.33;;;11.73;;
65799;SDS011;52544;48.116;11.660;2024-03-08T09:24:38;27.75;;;12.18;;
65799;SDS011;52544;48.116;11.660;2024-03-08T09:27:04;21.77;;;11.20;;
65799;SDS011;52544;48.116;11.660;2024-03-08T09:29:29;25.40;;;11.45;;
65799;SDS011;52544;48.116;11.660;2024-03-08T09:31:55;27.10;;;12.50;;
65799;SDS011;52544;48.116;11.660;2024-03-08T09:34:21;26.63;;;11.98;;
65799;SDS011;52544;48.116;11.660;2024-03-08T09:36:46;25.70;;;11.18;;
65799;SDS011;52544;48.116;11.660;2024-03-08T09:39:12;27.02;;;11.93;;
65799;SDS011;52544;48.116;11.660;2024-03-08T09:41:45;24.77;;;12.45;;
65799;SDS011;52544;48.116;11.660;2024-03-08T09:44:13;27.20;;;12.02;;
65799;SDS011;52544;48.116;11.660;2024-03-08T09:46:39;25.90;;;11.82;;
65799;SDS011;52544;48.116;11.660;2024-03-08T09:49:09;25.38;;;12.30;;
65799;SDS011;52544;48.116;11.660;2024-03-08T09:51:36;28.23;;;12.65;;
65799;SDS011;52544;48.116;11.660;2024-03-08T09:54:05;24.42;;;11.38;;
65799;SDS011;52544;48.116;11.660;2024-03-08T09:56:35;24.65;;;11.88;;
65799;SDS011;52544;48.116;11.660;2024-03-08T09:59:01;27.40;;;11.75;;
65799;SDS011;52544;48.116;11.660;2024-03-08T10:01:30;30.17;;;12.90;;
65799;SDS011;52544;48.116;11.660;2024-03-08T10:03:56;26.45;;;11.80;;
65799;SDS011;52544;48.116;11.660;2024-03-08T10:06:23;20.10;;;10.43;;
65799;SDS011;52544;48.116;11.660;2024-03-08T10:08:50;23.70;;;11.35;;
65799;SDS011;52544;48.116;11.660;2024-03-08T10:11:19;24.92;;;12.10;;
65799;SDS011;52544;48.116;11.660;2024-03-08T10:13:44;25.65;;;12.70;;
65799;SDS011;52544;48.116;11.660;2024-03-08T10:16:12;24.00;;;11.70;;
65799;SDS011;52544;48.116;11.660;2024-03-08T10:18:37;26.25;;;12.10;;
65799;SDS011;52544;48.116;11.660;2024-03-08T10:21:07;22.52;;;11.35;;
65799;SDS011;52544;48.116;11.660;2024-03-08T10:23:35;26.23;;;10.80;;
65799;SDS011;52544;48.116;11.660;2024-03-08T10:26:14;22.13;;;10.82;;
65799;SDS011;52544;48.116;11.660;2024-03-08T10:28:44;20.95;;;9.30;;
65799;SDS011;52544;48.116;11.660;2024-03-08T10:31:10;25.67;;;10.32;;
65799;SDS011;52544;48.116;11.660;2024-03-08T10:33:36;26.63;;;11.00;;
65799;SDS011;52544;48.116;11.660;2024-03-08T10:36:06;21.45;;;10.10;;
65799;SDS011;52544;48.116;11.660;2024-03-08T10:38:33;22.55;;;9.80;;
65799;SDS011;52544;48.116;11.660;2024-03-08T10:41:01;19.27;;;10.00;;
65799;SDS011;52544;48.116;11.660;2024-03-08T10:43:28;21.02;;;10.20;;
65799;SDS011;52544;48.116;11.660;2024-03-08T10:48:53;19.15;;;10.30;;
65799;SDS011;52544;48.116;11.660;2024-03-08T10:51:23;20.70;;;10.50;;
65799;SDS011;52544;48.116;11.660;2024-03-08T10:53:50;21.30;;;9.60;;
65799;SDS011;52544;48.116;11.660;2024-03-08T10:56:17;19.73;;;10.23;;
65799;SDS011;52544;48.116;11.660;2024-03-08T10:58:42;18.90;;;9.57;;
65799;SDS011;52544;48.116;11.660;2024-03-08T11:01:09;19.52;;;9.98;;
65799;SDS011;52544;48.116;11.660;2024-03-08T11:06:05;19.15;;;9.98;;
65799;SDS011;52544;48.116;11.660;2024-03-08T11:08:37;19.70;;;10.13;;
65799;SDS011;52544;48.116;11.660;2024-03-08T11:11:04;21.52;;;10.52;;
65799;SDS011;52544;48.116;11.660;2024-03-08T11:13:36;19.23;;;9.48;;
65799;SDS011;52544;48.116;11.660;2024-03-08T11:16:11;19.23;;;9.45;;
65799;SDS011;52544;48.116;11.660;2024-03-08T11:19:00;17.98;;;9.15;;
65799;SDS011;52544;48.116;11.660;2024-03-08T11:21:29;21.55;;;10.35;;
65799;SDS011;52544;48.116;11.660;2024-03-08T11:23:59;17.25;;;9.52;;
65799;SDS011;52544;48.116;11.660;2024-03-08T11:26:25;20.13;;;9.82;;
65799;SDS011;52544;48.116;11.660;2024-03-08T11:28:51;18.67;;;10.25;;
65799;SDS011;52544;48.116;11.660;2024-03-08T11:33:46;21.73;;;9.80;;
65799;SDS011;52544;48.116;11.660;2024-03-08T11:36:13;19.65;;;9.35;;
65799;SDS011;52544;48.116;11.660;2024-03-08T11:38:47;17.85;;;9.65;;
65799;SDS011;52544;48.116;11.660;2024-03-08T11:41:19;20.35;;;10.23;;
65799;SDS011;52544;48.116;11.660;2024-03-08T11:43:46;20.38;;;9.73;;
65799;SDS011;52544;48.116;11.660;2024-03-08T11:46:13;21.98;;;10.70;;
65799;SDS011;52544;48.116;11.660;2024-03-08T11:48:40;22.48;;;10.27;;
65799;SDS011;52544;48.116;11.660;2024-03-08T11:51:12;22.52;;;10.50;;
65799;SDS011;52544;48.116;11.660;2024-03-08T11:53:39;20.73;;;10.18;;
65799;SDS011;52544;48.116;11.660;2024-03-08T11:56:12;23.33;;;11.13;;
65799;SDS011;52544;48.116;11.660;2024-03-08T11:58:39;21.85;;;11.43;;
65799;SDS011;52544;48.116;11.660;2024-03-08T12:01:06;19.73;;;10.02;;
65799;SDS011;52544;48.116;11.660;2024-03-08T12:03:37;20.63;;;10.38;;
65799;SDS011;52544;48.116;11.660;2024-03-08T12:06:07;22.15;;;10.60;;
65799;SDS011;52544;48.116;11.660;2024-03-08T12:08:37;20.45;;;10.35;;
65799;SDS011;52544;48.116;11.660;2024-03-08T12:11:07;19.42;;;10.10;;
65799;SDS011;52544;48.116;11.660;2024-03-08T12:13:35;23.67;;;11.52;;
65799;SDS011;52544;48.116;11.660;2024-03-08T12:16:03;22.75;;;10.27;;
65799;SDS011;52544;48.116;11.660;2024-03-08T12:18:33;21.35;;;11.43;;
65799;SDS011;52544;48.116;11.660;2024-03-08T12:21:06;22.00;;;10.00;;
65799;SDS011;52544;48.116;11.660;2024-03-08T12:23:36;22.23;;;11.02;;
65799;SDS011;52544;48.116;11.660;2024-03-08T12:28:44;19.42;;;10.20;;
65799;SDS011;52544;48.116;11.660;2024-03-08T12:31:13;20.85;;;10.50;;
65799;SDS011;52544;48.116;11.660;2024-03-08T12:33:52;20.58;;;10.07;;
65799;SDS011;52544;48.116;11.660;2024-03-08T12:36:20;18.90;;;9.57;;
65799;SDS011;52544;48.116;11.660;2024-03-08T12:38:46;21.77;;;10.27;;
65799;SDS011;52544;48.116;11.660;2024-03-08T12:41:18;21.15;;;10.73;;
65799;SDS011;52544;48.116;11.660;2024-03-08T12:43:45;16.75;;;9.45;;
65799;SDS011;52544;48.116;11.660;2024-03-08T12:46:17;17.10;;;9.15;;
65799;SDS011;52544;48.116;11.660;2024-03-08T12:48:47;20.60;;;10.05;;
65799;SDS011;52544;48.116;11.660;2024-03-08T12:51:13;22.05;;;10.80;;
65799;SDS011;52544;48.116;11.660;2024-03-08T12:53:41;19.40;;;9.32;;
65799;SDS011;52544;48.116;11.660;2024-03-08T12:56:09;20.20;;;9.80;;
65799;SDS011;52544;48.116;11.660;2024-03-08T12:58:36;19.80;;;9.80;;
65799;SDS011;52544;48.116;11.660;2024-03-08T13:01:04;19.33;;;9.70;;
65799;SDS011;52544;48.116;11.660;2024-03-08T13:03:32;18.88;;;9.23;;
65799;SDS011;52544;48.116;11.660;2024-03-08T13:06:04;18.63;;;8.95;;
65799;SDS011;52544;48.116;11.660;2024-03-08T13:08:34;20.63;;;10.05;;
65799;SDS011;52544;48.116;11.660;2024-03-08T13:11:01;15.80;;;8.80;;
65799;SDS011;52544;48.116;11.660;2024-03-08T13:13:28;19.98;;;9.48;;
65799;SDS011;52544;48.116;11.660;2024-03-08T13:15:54;18.58;;;9.73;;
65799;SDS011;52544;48.116;11.660;2024-03-08T13:18:21;20.75;;;8.95;;
65799;SDS011;52544;48.116;11.660;2024-03-08T13:20:47;16.27;;;8.80;;
65799;SDS011;52544;48.116;11.660;2024-03-08T13:23:17;16.83;;;9.30;;
65799;SDS011;52544;48.116;11.660;2024-03-08T13:25:42;19.52;;;9.60;;
65799;SDS011;52544;48.116;11.660;2024-03-08T13:28:09;16.27;;;8.68;;
65799;SDS011;52544;48.116;11.660;2024-03-08T13:30:36;17.38;;;9.32;;
65799;SDS011;52544;48.116;11.660;2024-03-08T13:33:01;19.10;;;10.00;;
65799;SDS011;52544;48.116;11.660;2024-03-08T13:35:29;16.92;;;8.75;;
65799;SDS011;52544;48.116;11.660;2024-03-08T13:37:55;18.77;;;9.57;;
65799;SDS011;52544;48.116;11.660;2024-03-08T13:40:21;19.45;;;9.98;;
65799;SDS011;52544;48.116;11.660;2024-03-08T13:42:47;17.77;;;10.05;;
65799;SDS011;52544;48.116;11.660;2024-03-08T13:45:14;18.95;;;9.88;;
65799;SDS011;52544;48.116;11.660;2024-03-08T13:47:43;18.92;;;9.85;;
65799;SDS011;52544;48.116;11.660;2024-03-08T13:50:09;19.85;;;9.93;;
65799;SDS011;52544;48.116;11.660;2024-03-08T13:52:39;18.67;;;9.95;;
65799;SDS011;52544;48.116;11.660;2024-03-08T13:55:05;16.85;;;9.57;;
65799;SDS011;52544;48.116;11.660;2024-03-08T13:57:34;19.17;;;10.57;;
65799;SDS011;52544;48.116;11.660;2024-03-08T14:00:00;19.38;;;9.43;;
65799;SDS011;52544;48.116;11.660;2024-03-08T14:02:26;20.23;;;9.65;;
65799;SDS011;52544;48.116;11.660;2024-03-08T14:04:56;19.48;;;9.93;;
65799;SDS011;52544;48.116;11.660;2024-03-08T14:07:22;19.05;;;10.13;;
65799;SDS011;52544;48.116;11.660;2024-03-08T14:09:48;27.67;;;10.05;;
65799;SDS011;52544;48.116;11.660;2024-03-08T14:12:15;20.52;;;10.65;;
65799;SDS011;52544;48.116;11.660;2024-03-08T14:14:43;18.70;;;10.68;;
65799;SDS011;52544;48.116;11.660;2024-03-08T14:17:09;18.70;;;11.02;;
65799;SDS011;52544;48.116;11.660;2024-03-08T14:19:36;22.90;;;10.70;;
65799;SDS011;52544;48.116;11.660;2024-03-08T14:22:04;18.75;;;10.30;;